sensor_id;sensor_type;location;lat;lon;timestamp;P1;durP1;ratioP1;P2;durP2;ratioP2
18473;SDS011;30265;52.408;13.500;2023-04-23T00:10:06;12.55;;;7.60;;
18473;SDS011;30265;52.408;13.500;2023-04-23T00:20:30;12.75;;;8.00;;
18473;SDS011;30265;52.408;13.500;2023-04-23T00:30:53;12.88;;;8.30;;
18473;SDS011;30265;52.408;13.500;2023-04-23T00:41:17;11.32;;;7.28;;
18473;SDS011;30265;52.408;13.500;2023-04-23T00:51:39;11.93;;;7.77;;
18473;SDS011;30265;52.408;13.500;2023-04-23T01:02:02;14.25;;;7.57;;
18473;SDS011;30265;52.408;13.500;2023-04-23T01:12:26;14.02;;;8.40;;
18473;SDS011;30265;52.408;13.500;2023-04-23T01:22:49;20.70;;;8.40;;
18473;SDS011;30265;52.408;13.500;2023-04-23T01:33:10;13.73;;;7.25;;
18473;SDS011;30265;52.408;13.500;2023-04-23T01:43:34;11.52;;;8.40;;
18473;SDS011;30265;52.408;13.500;2023-04-23T01:53:56;12.20;;;7.97;;
18473;SDS011;30265;52.408;13.500;2023-04-23T02:04:19;11.50;;;8.02;;
18473;SDS011;30265;52.408;13.500;2023-04-23T02:14:44;11.25;;;8.00;;
18473;SDS011;30265;52.408;13.500;2023-04-23T02:25:07;14.15;;;8.50;;
18473;SDS011;30265;52.408;13.500;2023-04-23T02:35:30;12.35;;;8.25;;
18473;SDS011;30265;52.408;13.500;2023-04-23T02:45:54;19.70;;;9.85;;
18473;SDS011;30265;52.408;13.500;2023-04-23T02:56:15;16.45;;;9.65;;
18473;SDS011;30265;52.408;13.500;2023-04-23T03:06:38;14.45;;;9.75;;
18473;SDS011;30265;52.408;13.500;2023-04-23T03:17:00;16.58;;;11.07;;
18473;SDS011;30265;52.408;13.500;2023-04-23T03:27:25;16.75;;;9.75;;
18473;SDS011;30265;52.408;13.500;2023-04-23T03:37:48;18.30;;;11.15;;
18473;SDS011;30265;52.408;13.500;2023-04-23T03:48:12;18.88;;;11.15;;
18473;SDS011;30265;52.408;13.500;2023-04-23T03:58:37;17.50;;;11.25;;
18473;SDS011;30265;52.408;13.500;2023-04-23T04:09:00;15.73;;;10.77;;
18473;SDS011;30265;52.408;13.500;2023-04-23T04:19:23;15.70;;;9.98;;
18473;SDS011;30265;52.408;13.500;2023-04-23T04:29:46;20.98;;;11.18;;
18473;SDS011;30265;52.408;13.500;2023-04-23T04:40:08;15.73;;;9.77;;
18473;SDS011;30265;52.408;13.500;2023-04-23T04:50:31;15.30;;;10.73;;
18473;SDS011;30265;52.408;13.500;2023-04-23T05:00:53;18.38;;;10.30;;
18473;SDS011;30265;52.408;13.500;2023-04-23T05:11:17;17.85;;;11.80;;
18473;SDS011;30265;52.408;13.500;2023-04-23T05:21:40;20.73;;;11.02;;
18473;SDS011;30265;52.408;13.500;2023-04-23T05:32:03;19.50;;;10.38;;
18473;SDS011;30265;52.408;13.500;2023-04-23T05:42:24;18.67;;;10.68;;
18473;SDS011;30265;52.408;13.500;2023-04-23T05:52:47;19.42;;;11.20;;
18473;SDS011;30265;52.408;13.500;2023-04-23T06:03:09;19.75;;;10.98;;
18473;SDS011;30265;52.408;13.500;2023-04-23T06:13:33;16.00;;;10.85;;
18473;SDS011;30265;52.408;13.500;2023-04-23T06:24:02;16.13;;;10.30;;
18473;SDS011;30265;52.408;13.500;2023-04-23T06:34:26;16.30;;;9.13;;
18473;SDS011;30265;52.408;13.500;2023-04-23T06:44:47;13.82;;;9.23;;
18473;SDS011;30265;52.408;13.500;2023-04-23T06:55:12;12.93;;;7.65;;
18473;SDS011;30265;52.408;13.500;2023-04-23T07:05:37;12.60;;;8.20;;
18473;SDS011;30265;52.408;13.500;2023-04-23T07:16:00;11.85;;;6.70;;
18473;SDS011;30265;52.408;13.500;2023-04-23T07:26:24;10.73;;;6.78;;
18473;SDS011;30265;52.408;13.500;2023-04-23T07:36:49;12.90;;;7.75;;
18473;SDS011;30265;52.408;13.500;2023-04-23T07:47:11;13.93;;;6.47;;
18473;SDS011;30265;52.408;13.500;2023-04-23T07:57:34;10.63;;;6.13;;
18473;SDS011;30265;52.408;13.500;2023-04-23T08:07:55;16.02;;;6.18;;
18473;SDS011;30265;52.408;13.500;2023-04-23T08:18:18;12.38;;;7.20;;
18473;SDS011;30265;52.408;13.500;2023-04-23T08:28:41;9.90;;;6.95;;
18473;SDS011;30265;52.408;13.500;2023-04-23T08:39:04;8.63;;;6.13;;
18473;SDS011;30265;52.408;13.500;2023-04-23T08:49:26;12.85;;;6.65;;
18473;SDS011;30265;52.408;13.500;2023-04-23T08:59:53;10.48;;;5.85;;
18473;SDS011;30265;52.408;13.500;2023-04-23T09:10:16;8.60;;;5.07;;
18473;SDS011;30265;52.408;13.500;2023-04-23T09:20:40;10.23;;;5.45;;
18473;SDS011;30265;52.408;13.500;2023-04-23T09:31:03;9.30;;;5.10;;
18473;SDS011;30265;52.408;13.500;2023-04-23T09:41:27;6.05;;;4.75;;
18473;SDS011;30265;52.408;13.500;2023-04-23T09:51:50;7.73;;;4.67;;
18473;SDS011;30265;52.408;13.500;2023-04-23T10:02:14;5.63;;;3.80;;
18473;SDS011;30265;52.408;13.500;2023-04-23T10:12:36;6.45;;;3.88;;
18473;SDS011;30265;52.408;13.500;2023-04-23T10:23:15;3.53;;;2.75;;
18473;SDS011;30265;52.408;13.500;2023-04-23T10:44:20;5.35;;;3.90;;
18473;SDS011;30265;52.408;13.500;2023-04-23T10:55:01;5.28;;;2.85;;
18473;SDS011;30265;52.408;13.500;2023-04-23T11:05:25;2.10;;;1.70;;
18473;SDS011;30265;52.408;13.500;2023-04-23T11:15:48;5.43;;;3.40;;
18473;SDS011;30265;52.408;13.500;2023-04-23T11:26:11;11.02;;;6.55;;
18473;SDS011;30265;52.408;13.500;2023-04-23T11:36:37;10.00;;;5.45;;
18473;SDS011;30265;52.408;13.500;2023-04-23T11:47:01;5.93;;;3.47;;
18473;SDS011;30265;52.408;13.500;2023-04-23T11:57:23;6.90;;;4.30;;
18473;SDS011;30265;52.408;13.500;2023-04-23T12:07:48;5.70;;;3.53;;
18473;SDS011;30265;52.408;13.500;2023-04-23T12:18:10;6.22;;;4.28;;
18473;SDS011;30265;52.408;13.500;2023-04-23T12:28:33;3.20;;;1.95;;
18473;SDS011;30265;52.408;13.500;2023-04-23T12:49:47;4.15;;;2.20;;
18473;SDS011;30265;52.408;13.500;2023-04-23T13:00:13;7.05;;;2.90;;
18473;SDS011;30265;52.408;13.500;2023-04-23T13:10:37;3.05;;;2.00;;
18473;SDS011;30265;52.408;13.500;2023-04-23T13:20:58;6.38;;;1.73;;
18473;SDS011;30265;52.408;13.500;2023-04-23T13:31:21;3.00;;;1.50;;
18473;SDS011;30265;52.408;13.500;2023-04-23T13:41:44;2.63;;;1.90;;
18473;SDS011;30265;52.408;13.500;2023-04-23T13:52:28;3.23;;;1.83;;
18473;SDS011;30265;52.408;13.500;2023-04-23T14:02:50;3.42;;;2.35;;
18473;SDS011;30265;52.408;13.500;2023-04-23T14:13:18;5.25;;;2.70;;
18473;SDS011;30265;52.408;13.500;2023-04-23T14:23:49;3.60;;;2.60;;
18473;SDS011;30265;52.408;13.500;2023-04-23T14:34:16;4.25;;;2.70;;
18473;SDS011;30265;52.408;13.500;2023-04-23T14:44:38;4.57;;;2.47;;
18473;SDS011;30265;52.408;13.500;2023-04-23T14:55:01;3.00;;;2.33;;
18473;SDS011;30265;52.408;13.500;2023-04-23T15:05:22;3.93;;;2.33;;
18473;SDS011;30265;52.408;13.500;2023-04-23T15:15:49;4.25;;;2.95;;
18473;SDS011;30265;52.408;13.500;2023-04-23T15:26:12;4.53;;;2.88;;
18473;SDS011;30265;52.408;13.500;2023-04-23T15:36:35;3.67;;;2.75;;
18473;SDS011;30265;52.408;13.500;2023-04-23T16:07:43;5.38;;;2.63;;
18473;SDS011;30265;52.408;13.500;2023-04-23T16:18:06;3.45;;;2.70;;
18473;SDS011;30265;52.408;13.500;2023-04-23T16:49:11;5.10;;;3.00;;
18473;SDS011;30265;52.408;13.500;2023-04-23T16:59:36;4.45;;;3.35;;
18473;SDS011;30265;52.408;13.500;2023-04-23T17:10:00;4.47;;;3.10;;
18473;SDS011;30265;52.408;13.500;2023-04-23T17:20:27;5.72;;;2.97;;
18473;SDS011;30265;52.408;13.500;2023-04-23T17:30:53;7.50;;;3.15;;
18473;SDS011;30265;52.408;13.500;2023-04-23T17:41:16;5.35;;;3.00;;
18473;SDS011;30265;52.408;13.500;2023-04-23T17:51:38;5.93;;;3.00;;
18473;SDS011;30265;52.408;13.500;2023-04-23T18:02:01;5.85;;;3.72;;
18473;SDS011;30265;52.408;13.500;2023-04-23T18:12:24;7.70;;;4.30;;
18473;SDS011;30265;52.408;13.500;2023-04-23T18:22:47;13.07;;;5.97;;
18473;SDS011;30265;52.408;13.500;2023-04-23T18:33:12;10.18;;;5.45;;
18473;SDS011;30265;52.408;13.500;2023-04-23T18:43:46;7.85;;;5.18;;
18473;SDS011;30265;52.408;13.500;2023-04-23T18:54:08;10.85;;;5.95;;
18473;SDS011;30265;52.408;13.500;2023-04-23T19:04:35;10.25;;;5.50;;
18473;SDS011;30265;52.408;13.500;2023-04-23T19:14:56;13.63;;;7.45;;
18473;SDS011;30265;52.408;13.500;2023-04-23T19:25:19;13.00;;;7.30;;
18473;SDS011;30265;52.408;13.500;2023-04-23T19:35:41;11.77;;;6.75;;
18473;SDS011;30265;52.408;13.500;2023-04-23T19:46:04;12.77;;;6.55;;
18473;SDS011;30265;52.408;13.500;2023-04-23T19:56:25;11.80;;;6.38;;
18473;SDS011;30265;52.408;13.500;2023-04-23T20:06:48;10.77;;;5.65;;
18473;SDS011;30265;52.408;13.500;2023-04-23T20:17:10;18.15;;;6.00;;
18473;SDS011;30265;52.408;13.500;2023-04-23T20:27:33;8.75;;;5.13;;
18473;SDS011;30265;52.408;13.500;2023-04-23T20:37:54;6.57;;;4.45;;
18473;SDS011;30265;52.408;13.500;2023-04-23T20:48:17;8.05;;;4.97;;
18473;SDS011;30265;52.408;13.500;2023-04-23T20:58:39;8.43;;;4.30;;
18473;SDS011;30265;52.408;13.500;2023-04-23T21:09:02;7.28;;;4.85;;
18473;SDS011;30265;52.408;13.500;2023-04-23T21:19:24;6.28;;;4.55;;
18473;SDS011;30265;52.408;13.500;2023-04-23T21:29:46;8.23;;;5.20;;
18473;SDS011;30265;52.408;13.500;2023-04-23T21:40:08;7.90;;;4.30;;
18473;SDS011;30265;52.408;13.500;2023-04-23T21:50:31;7.97;;;4.85;;
18473;SDS011;30265;52.408;13.500;2023-04-23T22:00:53;6.00;;;4.05;;
18473;SDS011;30265;52.408;13.500;2023-04-23T22:11:17;10.50;;;4.57;;
18473;SDS011;30265;52.408;13.500;2023-04-23T22:21:39;8.20;;;4.43;;
18473;SDS011;30265;52.408;13.500;2023-04-23T22:32:02;7.22;;;4.63;;
18473;SDS011;30265;52.408;13.500;2023-04-23T22:42:23;7.40;;;3.85;;
18473;SDS011;30265;52.408;13.500;2023-04-23T22:52:46;6.25;;;4.55;;
18473;SDS011;30265;52.408;13.500;2023-04-23T23:03:08;7.93;;;4.72;;
18473;SDS011;30265;52.408;13.500;2023-04-23T23:13:31;5.63;;;4.13;;
18473;SDS011;30265;52.408;13.500;2023-04-23T23:23:52;8.63;;;5.18;;
18473;SDS011;30265;52.408;13.500;2023-04-23T23:34:15;7.63;;;4.18;;
18473;SDS011;30265;52.408;13.500;2023-04-23T23:44:37;6.40;;;4.50;;
18473;SDS011;30265;52.408;13.500;2023-04-23T23:55:00;6.50;;;4.35;;
